Time;durP1;ratioP1;P1;durP2;ratioP2;P2;SDS_P1;SDS_P2;PMS_P1;PMS_P2;Temp;Humidity;BMP_temperature;BMP_pressure;BME280_temperature;BME280_humidity;BME280_pressure;Samples;Min_cycle;Max_cycle;Signal;HPM_P1;HPM_P2
2023/06/12 00:01:31;;;;;;;3.95;2.42;;;;;;;;;;5087168;28;20045;-62
2023/06/12 00:03:59;;;;;;;4.47;2.30;;;;;;;;;;5085197;28;20509;-64
2023/06/12 00:06:28;;;;;;;3.03;2.35;;;;;;;;;;5081583;28;20044;-61
2023/06/12 00:08:58;;;;;;;4.35;2.35;;;;;;;;;;5087216;28;20052;-62
2023/06/12 00:11:26;;;;;;;4.25;2.70;;;;;;;;;;5086807;28;20054;-63
2023/06/12 00:13:55;;;;;;;2.78;2.15;;;;;;;;;;5083535;28;20072;-62
2023/06/12 00:16:25;;;;;;;4.32;2.13;;;;;;;;;;5086960;28;20070;-64
2023/06/12 00:18:53;;;;;;;2.17;1.95;;;;;;;;;;5085932;28;20113;-63
2023/06/12 00:21:22;;;;;;;4.65;2.85;;;;;;;;;;5085430;28;20137;-62
2023/06/12 00:23:51;;;;;;;4.05;2.45;;;;;;;;;;5087955;28;20047;-62
2023/06/12 00:26:19;;;;;;;3.95;2.40;;;;;;;;;;5081370;28;20492;-64
2023/06/12 00:28:48;;;;;;;4.05;2.42;;;;;;;;;;5087238;28;20056;-64
2023/06/12 00:31:16;;;;;;;3.58;2.47;;;;;;;;;;5085882;28;20044;-64
2023/06/12 00:33:47;;;;;;;4.93;2.42;;;;;;;;;;5081856;28;20044;-63
2023/06/12 00:36:15;;;;;;;2.97;2.63;;;;;;;;;;5086282;28;20094;-62
2023/06/12 00:38:44;;;;;;;2.95;2.42;;;;;;;;;;5088282;28;20066;-62
2023/06/12 00:41:12;;;;;;;4.00;2.30;;;;;;;;;;5084186;28;20490;-68
2023/06/12 00:43:40;;;;;;;6.07;3.22;;;;;;;;;;5083503;28;20093;-65
2023/06/12 00:46:10;;;;;;;4.88;2.80;;;;;;;;;;5081504;28;20052;-63
2023/06/12 00:48:40;;;;;;;3.85;2.42;;;;;;;;;;5082627;28;20155;-62
2023/06/12 00:51:10;;;;;;;5.00;2.25;;;;;;;;;;5084994;28;20546;-62
2023/06/12 00:53:39;;;;;;;4.07;2.40;;;;;;;;;;5084257;28;20044;-62
2023/06/12 00:56:07;;;;;;;3.67;2.15;;;;;;;;;;5086950;28;20068;-63
2023/06/12 00:58:36;;;;;;;4.63;2.50;;;;;;;;;;5084801;28;20086;-65
2023/06/12 01:01:04;;;;;;;5.65;2.72;;;;;;;;;;5084539;28;20105;-67
2023/06/12 01:03:33;;;;;;;4.28;2.47;;;;;;;;;;5075045;28;20048;-63
2023/06/12 01:06:03;;;;;;;3.65;2.30;;;;;;;;;;5085932;28;20086;-64
2023/06/12 01:08:37;;;;;;;3.92;2.42;;;;;;;;;;5084794;28;20550;-64
2023/06/12 01:11:07;;;;;;;4.65;2.55;;;;;;;;;;5083055;28;20132;-63
2023/06/12 01:13:36;;;;;;;4.03;2.33;;;;;;;;;;5077091;28;20465;-63
2023/06/12 01:16:04;;;;;;;3.92;2.60;;;;;;;;;;5083968;28;20245;-65
2023/06/12 01:18:34;;;;;;;4.07;2.53;;;;;;;;;;5083286;28;20052;-64
2023/06/12 01:21:04;;;;;;;5.28;2.65;;;;;;;;;;5083142;28;20397;-64
2023/06/12 01:23:43;;;;;;;4.45;2.40;;;;;;;;;;5084873;28;20094;-62
2023/06/12 01:26:26;;;;;;;4.47;2.85;;;;;;;;;;5083013;28;20047;-63
2023/06/12 01:29:03;;;;;;;5.18;3.08;;;;;;;;;;5057642;28;20094;-61
2023/06/12 01:31:36;;;;;;;4.50;2.63;;;;;;;;;;5080666;28;20109;-64
2023/06/12 01:34:08;;;;;;;3.35;2.33;;;;;;;;;;5079277;28;20048;-63
2023/06/12 01:36:38;;;;;;;4.72;2.70;;;;;;;;;;5079274;28;20048;-64
2023/06/12 01:39:07;;;;;;;5.82;2.88;;;;;;;;;;5082513;28;20193;-67
2023/06/12 01:41:36;;;;;;;4.68;2.40;;;;;;;;;;5085496;28;20141;-63
2023/06/12 01:44:08;;;;;;;6.70;2.85;;;;;;;;;;5078130;28;20492;-63
2023/06/12 01:46:36;;;;;;;3.97;2.53;;;;;;;;;;5082796;28;20093;-65
2023/06/12 01:49:06;;;;;;;3.35;2.25;;;;;;;;;;5082489;28;20044;-62
2023/06/12 01:51:35;;;;;;;3.17;1.98;;;;;;;;;;5087633;28;20058;-64
2023/06/12 01:54:04;;;;;;;4.80;2.78;;;;;;;;;;5078829;28;20503;-63
2023/06/12 01:56:33;;;;;;;4.30;2.50;;;;;;;;;;5084843;28;20051;-65
2023/06/12 01:59:02;;;;;;;3.58;2.58;;;;;;;;;;5084657;28;20101;-62
2023/06/12 02:01:31;;;;;;;3.67;2.35;;;;;;;;;;5085038;28;20172;-64
2023/06/12 02:03:59;;;;;;;4.00;2.40;;;;;;;;;;5085843;28;20515;-63
2023/06/12 02:06:29;;;;;;;5.55;2.83;;;;;;;;;;5085119;28;20056;-64
2023/06/12 02:08:57;;;;;;;3.70;2.35;;;;;;;;;;5086966;28;20040;-63
2023/06/12 02:11:26;;;;;;;5.45;3.05;;;;;;;;;;5089301;28;20048;-62
2023/06/12 02:13:54;;;;;;;6.43;2.88;;;;;;;;;;5081938;28;20059;-63
2023/06/12 02:16:23;;;;;;;3.45;2.50;;;;;;;;;;5085322;28;20080;-63
2023/06/12 02:18:52;;;;;;;4.97;2.78;;;;;;;;;;5081240;28;20500;-64
2023/06/12 02:21:20;;;;;;;4.88;2.78;;;;;;;;;;5084993;28;20122;-63
2023/06/12 02:23:50;;;;;;;4.53;2.45;;;;;;;;;;5089326;28;20044;-60
2023/06/12 02:26:18;;;;;;;6.13;2.75;;;;;;;;;;5080507;28;20043;-62
2023/06/12 02:28:47;;;;;;;3.08;2.60;;;;;;;;;;5088700;28;20080;-62
2023/06/12 02:31:16;;;;;;;5.38;3.10;;;;;;;;;;5085006;28;20076;-65
2023/06/12 02:33:44;;;;;;;4.32;3.08;;;;;;;;;;5084247;28;20097;-63
2023/06/12 02:36:12;;;;;;;3.92;2.53;;;;;;;;;;5088452;28;20513;-62
2023/06/12 02:38:41;;;;;;;4.72;2.63;;;;;;;;;;5084086;28;20044;-62
2023/06/12 02:41:13;;;;;;;4.93;2.72;;;;;;;;;;5083644;28;20049;-62
2023/06/12 02:43:42;;;;;;;4.63;2.47;;;;;;;;;;5076607;28;20043;-65
2023/06/12 02:46:10;;;;;;;5.38;2.50;;;;;;;;;;5087426;28;20040;-63
2023/06/12 02:48:38;;;;;;;4.65;2.47;;;;;;;;;;5082795;28;20051;-64
2023/06/12 02:51:07;;;;;;;3.58;2.53;;;;;;;;;;5085150;28;20055;-62
2023/06/12 02:53:35;;;;;;;4.15;2.78;;;;;;;;;;5085023;28;20510;-63
2023/06/12 02:56:04;;;;;;;3.83;2.55;;;;;;;;;;5086492;28;20352;-62
2023/06/12 02:58:34;;;;;;;3.60;2.60;;;;;;;;;;5084020;28;20554;-63
2023/06/12 03:01:04;;;;;;;5.45;2.78;;;;;;;;;;5089949;28;20105;-62
2023/06/12 03:03:32;;;;;;;4.15;2.85;;;;;;;;;;5086588;28;20052;-62
2023/06/12 03:06:01;;;;;;;5.47;3.03;;;;;;;;;;5073523;28;20063;-63
2023/06/12 03:08:29;;;;;;;5.70;2.72;;;;;;;;;;5081020;28;20733;-67
2023/06/12 03:10:57;;;;;;;5.22;2.85;;;;;;;;;;5086498;28;20097;-62
2023/06/12 03:13:26;;;;;;;3.88;2.72;;;;;;;;;;5078618;28;20455;-63
2023/06/12 03:15:56;;;;;;;4.28;2.70;;;;;;;;;;5084357;28;20080;-62
2023/06/12 03:18:24;;;;;;;4.68;2.83;;;;;;;;;;5085008;28;20135;-63
2023/06/12 03:20:52;;;;;;;4.80;2.80;;;;;;;;;;5078615;28;20143;-62
2023/06/12 03:23:21;;;;;;;4.88;2.83;;;;;;;;;;5086314;28;20063;-62
2023/06/12 03:25:49;;;;;;;5.40;2.70;;;;;;;;;;5083737;28;20094;-61
2023/06/12 03:28:17;;;;;;;6.60;3.00;;;;;;;;;;5085295;28;20156;-63
2023/06/12 03:30:46;;;;;;;4.47;2.80;;;;;;;;;;5080504;28;20052;-64
2023/06/12 03:33:16;;;;;;;6.80;3.20;;;;;;;;;;5081641;28;20075;-66
2023/06/12 03:35:44;;;;;;;4.65;3.00;;;;;;;;;;5084758;28;20056;-63
2023/06/12 03:38:12;;;;;;;5.35;2.90;;;;;;;;;;5084939;28;20101;-61
2023/06/12 03:40:41;;;;;;;4.95;3.08;;;;;;;;;;5085949;28;20059;-60
2023/06/12 03:43:09;;;;;;;5.43;2.80;;;;;;;;;;5087561;28;20044;-62
2023/06/12 03:45:37;;;;;;;6.10;2.80;;;;;;;;;;5087510;28;20090;-64
2023/06/12 03:48:06;;;;;;;5.43;3.47;;;;;;;;;;5083359;28;20079;-63
2023/06/12 03:50:38;;;;;;;7.00;3.67;;;;;;;;;;5083412;28;20055;-62
2023/06/12 03:53:06;;;;;;;6.70;2.63;;;;;;;;;;5087290;28;20385;-61
2023/06/12 03:55:35;;;;;;;6.45;3.28;;;;;;;;;;5085411;28;20520;-62
2023/06/12 03:58:03;;;;;;;6.38;3.40;;;;;;;;;;5086119;28;20052;-62
2023/06/12 04:00:32;;;;;;;6.65;3.17;;;;;;;;;;5083504;28;20056;-62
2023/06/12 04:03:01;;;;;;;5.47;3.00;;;;;;;;;;5079865;28;20103;-65
2023/06/12 04:05:30;;;;;;;4.68;2.90;;;;;;;;;;5083182;28;21901;-62
2023/06/12 04:08:00;;;;;;;5.60;2.70;;;;;;;;;;5080015;28;20385;-65
2023/06/12 04:10:28;;;;;;;4.88;2.95;;;;;;;;;;5075076;28;21202;-62
2023/06/12 04:12:57;;;;;;;5.65;2.70;;;;;;;;;;5081919;28;20488;-63
2023/06/12 04:15:26;;;;;;;6.25;3.15;;;;;;;;;;5082566;28;20056;-62
2023/06/12 04:17:57;;;;;;;4.80;2.85;;;;;;;;;;5085828;28;20056;-61
2023/06/12 04:20:27;;;;;;;4.75;2.58;;;;;;;;;;5085496;28;20055;-66
2023/06/12 04:22:57;;;;;;;5.65;3.08;;;;;;;;;;5081831;28;20097;-63
2023/06/12 04:25:27;;;;;;;5.75;3.80;;;;;;;;;;5082549;28;20074;-64
2023/06/12 04:27:56;;;;;;;4.68;2.72;;;;;;;;;;5081503;28;20091;-61
2023/06/12 04:30:25;;;;;;;5.15;2.97;;;;;;;;;;5081896;28;20101;-63
2023/06/12 04:32:56;;;;;;;4.70;2.85;;;;;;;;;;5086764;28;20052;-63
2023/06/12 04:35:25;;;;;;;3.58;2.75;;;;;;;;;;5076615;28;20089;-63
2023/06/12 04:37:55;;;;;;;6.88;3.55;;;;;;;;;;5085644;28;20075;-63
2023/06/12 04:40:24;;;;;;;5.10;2.78;;;;;;;;;;5087500;28;20052;-62
2023/06/12 04:42:58;;;;;;;6.25;3.47;;;;;;;;;;5084994;28;20405;-66
2023/06/12 04:45:32;;;;;;;7.57;3.72;;;;;;;;;;5077798;28;20056;-65
2023/06/12 04:48:01;;;;;;;6.53;3.53;;;;;;;;;;5079288;28;20408;-63
2023/06/12 04:50:30;;;;;;;7.15;3.30;;;;;;;;;;5079819;28;20044;-61
2023/06/12 04:53:00;;;;;;;5.88;3.75;;;;;;;;;;5079631;28;20048;-67
2023/06/12 04:55:30;;;;;;;6.07;3.53;;;;;;;;;;5078083;28;20082;-64
2023/06/12 04:58:00;;;;;;;7.60;4.03;;;;;;;;;;5082734;28;20044;-62
2023/06/12 05:00:29;;;;;;;6.43;3.83;;;;;;;;;;5081122;28;20501;-64
2023/06/12 05:02:58;;;;;;;9.18;3.95;;;;;;;;;;5082042;28;20048;-63
2023/06/12 05:05:29;;;;;;;9.32;4.32;;;;;;;;;;5082566;28;20123;-62
2023/06/12 05:07:57;;;;;;;5.90;3.53;;;;;;;;;;5083307;28;20722;-61
2023/06/12 05:10:26;;;;;;;6.30;3.72;;;;;;;;;;5085000;28;20078;-63
2023/06/12 05:12:54;;;;;;;6.32;3.72;;;;;;;;;;5082735;28;20056;-65
2023/06/12 05:15:24;;;;;;;10.35;4.15;;;;;;;;;;5081530;28;20135;-63
2023/06/12 05:17:52;;;;;;;7.55;3.80;;;;;;;;;;5087475;28;20103;-62
2023/06/12 05:20:21;;;;;;;6.00;3.63;;;;;;;;;;5086528;28;20051;-62
2023/06/12 05:22:49;;;;;;;7.25;4.13;;;;;;;;;;5086005;28;20060;-62
2023/06/12 05:25:17;;;;;;;7.25;3.85;;;;;;;;;;5083208;28;20056;-62
2023/06/12 05:27:46;;;;;;;6.47;3.38;;;;;;;;;;5087981;28;20109;-63
2023/06/12 05:30:15;;;;;;;7.07;4.20;;;;;;;;;;5088798;28;20101;-62
2023/06/12 05:32:45;;;;;;;5.47;3.72;;;;;;;;;;5092334;28;20127;-62
2023/06/12 05:35:13;;;;;;;5.32;3.30;;;;;;;;;;5089777;28;20066;-63
2023/06/12 05:37:42;;;;;;;8.98;4.75;;;;;;;;;;5090303;28;20115;-63
2023/06/12 05:40:12;;;;;;;9.10;4.88;;;;;;;;;;5092220;28;20412;-63
2023/06/12 05:42:41;;;;;;;8.48;4.40;;;;;;;;;;5092768;28;20052;-62
2023/06/12 05:45:10;;;;;;;7.65;4.15;;;;;;;;;;5082807;28;20112;-62
2023/06/12 05:47:38;;;;;;;7.78;4.13;;;;;;;;;;5091014;28;20557;-62
2023/06/12 05:50:09;;;;;;;4.88;3.55;;;;;;;;;;5084980;28;20051;-62
2023/06/12 05:52:37;;;;;;;5.35;3.25;;;;;;;;;;5085644;28;20049;-63
2023/06/12 05:55:08;;;;;;;6.50;3.80;;;;;;;;;;5091874;28;20051;-62
2023/06/12 05:57:37;;;;;;;7.57;4.43;;;;;;;;;;5091461;28;20451;-62
2023/06/12 06:00:06;;;;;;;6.15;3.45;;;;;;;;;;5080727;28;20048;-64
2023/06/12 06:02:35;;;;;;;7.72;3.50;;;;;;;;;;5091974;28;20048;-63
2023/06/12 06:05:04;;;;;;;7.70;3.95;;;;;;;;;;5086180;28;20066;-61
2023/06/12 06:07:34;;;;;;;7.20;3.53;;;;;;;;;;5087223;28;20123;-62
2023/06/12 06:10:03;;;;;;;7.10;3.63;;;;;;;;;;5091123;28;20068;-62
2023/06/12 06:12:32;;;;;;;6.95;3.45;;;;;;;;;;5090795;28;20411;-62
2023/06/12 06:15:00;;;;;;;5.95;3.42;;;;;;;;;;5088603;28;20143;-64
2023/06/12 06:17:29;;;;;;;8.65;3.90;;;;;;;;;;5085727;28;20056;-63
2023/06/12 06:19:58;;;;;;;9.10;3.80;;;;;;;;;;5090575;28;20048;-61
2023/06/12 06:22:26;;;;;;;8.48;3.13;;;;;;;;;;5089517;28;20110;-61
2023/06/12 06:24:56;;;;;;;6.25;3.13;;;;;;;;;;5080802;28;20119;-62
2023/06/12 06:27:24;;;;;;;6.97;3.35;;;;;;;;;;5085678;28;20069;-62
2023/06/12 06:29:52;;;;;;;6.00;3.20;;;;;;;;;;5089885;28;20089;-61
2023/06/12 06:32:21;;;;;;;6.32;3.40;;;;;;;;;;5089775;28;20056;-65
2023/06/12 06:34:49;;;;;;;6.47;3.50;;;;;;;;;;5089339;28;20685;-61
2023/06/12 06:37:18;;;;;;;5.88;3.53;;;;;;;;;;5090200;28;20085;-63
2023/06/12 06:39:47;;;;;;;7.20;3.38;;;;;;;;;;5089745;28;20089;-63
2023/06/12 06:42:17;;;;;;;6.03;3.40;;;;;;;;;;5089965;28;20071;-63
2023/06/12 06:44:45;;;;;;;4.30;3.20;;;;;;;;;;5087339;28;20466;-64
2023/06/12 06:47:14;;;;;;;5.72;3.72;;;;;;;;;;5083952;28;20052;-64
2023/06/12 06:49:42;;;;;;;6.78;3.17;;;;;;;;;;5088129;28;20403;-62
2023/06/12 06:52:11;;;;;;;6.82;3.53;;;;;;;;;;5082308;28;20153;-62
2023/06/12 06:54:39;;;;;;;7.10;4.30;;;;;;;;;;5087616;28;20068;-62
2023/06/12 06:57:10;;;;;;;6.93;3.63;;;;;;;;;;5084870;28;20052;-62
2023/06/12 06:59:40;;;;;;;5.57;3.75;;;;;;;;;;5088666;28;20052;-63
2023/06/12 07:02:09;;;;;;;6.82;4.32;;;;;;;;;;5091159;28;20121;-62
2023/06/12 07:04:37;;;;;;;4.38;2.97;;;;;;;;;;5087806;28;20056;-63
2023/06/12 07:07:06;;;;;;;7.30;3.28;;;;;;;;;;5082591;28;20105;-62
2023/06/12 07:09:34;;;;;;;5.97;3.50;;;;;;;;;;5089080;28;20105;-64
2023/06/12 07:12:02;;;;;;;5.45;3.55;;;;;;;;;;5090823;28;20051;-62
2023/06/12 07:14:31;;;;;;;5.75;3.67;;;;;;;;;;5086772;28;20105;-63
2023/06/12 07:17:00;;;;;;;5.38;2.95;;;;;;;;;;5090078;28;20052;-63
2023/06/12 07:19:30;;;;;;;5.78;2.85;;;;;;;;;;5083353;28;20341;-62
2023/06/12 07:21:58;;;;;;;5.93;3.50;;;;;;;;;;5085599;28;20060;-61
2023/06/12 07:24:27;;;;;;;5.32;3.85;;;;;;;;;;5078007;28;20624;-62
2023/06/12 07:26:55;;;;;;;6.70;3.47;;;;;;;;;;5077552;28;20073;-64
2023/06/12 07:29:24;;;;;;;4.22;3.28;;;;;;;;;;5079193;28;20039;-63
2023/06/12 07:31:52;;;;;;;4.88;2.95;;;;;;;;;;5081728;28;20047;-64
2023/06/12 07:34:22;;;;;;;6.20;3.40;;;;;;;;;;5078693;28;20175;-62
2023/06/12 07:36:50;;;;;;;6.97;3.08;;;;;;;;;;5077540;28;20113;-65
2023/06/12 07:39:19;;;;;;;3.75;2.95;;;;;;;;;;5083796;28;20048;-62
2023/06/12 07:41:47;;;;;;;6.20;3.28;;;;;;;;;;5079329;28;20056;-63
2023/06/12 07:44:16;;;;;;;6.07;2.90;;;;;;;;;;5083874;28;20136;-64
2023/06/12 07:46:44;;;;;;;4.80;3.13;;;;;;;;;;5079694;28;20079;-63
2023/06/12 07:49:13;;;;;;;7.75;3.60;;;;;;;;;;5081926;28;20066;-62
2023/06/12 07:51:43;;;;;;;4.90;3.05;;;;;;;;;;5079759;28;20130;-64
2023/06/12 07:54:12;;;;;;;3.88;2.55;;;;;;;;;;5077492;28;20533;-65
2023/06/12 07:56:40;;;;;;;3.80;2.80;;;;;;;;;;5083213;28;20055;-67
2023/06/12 07:59:10;;;;;;;5.28;3.28;;;;;;;;;;5082572;28;20524;-62
2023/06/12 08:01:39;;;;;;;5.15;3.08;;;;;;;;;;5083019;28;20044;-62
2023/06/12 08:04:10;;;;;;;4.57;3.08;;;;;;;;;;5083685;28;20190;-63
2023/06/12 08:06:38;;;;;;;5.03;2.95;;;;;;;;;;5081157;28;20052;-67
2023/06/12 08:09:09;;;;;;;8.18;3.25;;;;;;;;;;5084031;28;20078;-71
2023/06/12 08:11:39;;;;;;;3.45;2.42;;;;;;;;;;5081420;28;20102;-62
2023/06/12 08:14:08;;;;;;;4.15;2.65;;;;;;;;;;5079977;28;20048;-64
2023/06/12 08:16:36;;;;;;;6.18;3.30;;;;;;;;;;5081197;28;20062;-67
2023/06/12 08:19:05;;;;;;;6.07;3.13;;;;;;;;;;5081245;28;20060;-63
2023/06/12 08:21:34;;;;;;;3.50;2.45;;;;;;;;;;5079702;28;20055;-65
2023/06/12 08:24:03;;;;;;;5.97;3.20;;;;;;;;;;5080258;28;20052;-62
2023/06/12 08:26:33;;;;;;;5.47;3.05;;;;;;;;;;5080386;28;20580;-63
2023/06/12 08:29:01;;;;;;;5.30;2.97;;;;;;;;;;5081209;28;20124;-68
2023/06/12 08:31:29;;;;;;;6.05;3.33;;;;;;;;;;5079109;28;20040;-66
2023/06/12 08:33:58;;;;;;;4.10;2.80;;;;;;;;;;5085251;28;20078;-65
2023/06/12 08:36:27;;;;;;;7.28;2.80;;;;;;;;;;5079783;28;20048;-65
2023/06/12 08:38:55;;;;;;;5.63;2.60;;;;;;;;;;5085182;28;20051;-64
2023/06/12 08:41:26;;;;;;;5.72;3.10;;;;;;;;;;5083399;28;20548;-63
2023/06/12 08:43:59;;;;;;;6.88;3.00;;;;;;;;;;5083445;28;20055;-68
2023/06/12 08:46:30;;;;;;;4.38;2.70;;;;;;;;;;5079907;28;20044;-65
2023/06/12 08:49:00;;;;;;;3.53;2.40;;;;;;;;;;5079631;28;20557;-69
2023/06/12 08:51:30;;;;;;;4.32;2.45;;;;;;;;;;5077795;28;20308;-64
2023/06/12 08:54:01;;;;;;;6.88;2.80;;;;;;;;;;5079673;28;20052;-65
2023/06/12 08:56:30;;;;;;;7.85;3.08;;;;;;;;;;5077899;28;20048;-65
2023/06/12 08:59:03;;;;;;;4.72;2.83;;;;;;;;;;5074284;28;20076;-65
2023/06/12 09:01:33;;;;;;;4.63;2.60;;;;;;;;;;5078147;28;20040;-66
2023/06/12 09:04:05;;;;;;;5.40;3.42;;;;;;;;;;5080673;28;20070;-66
2023/06/12 09:06:36;;;;;;;3.83;2.30;;;;;;;;;;5073594;28;20135;-69
2023/06/12 09:09:05;;;;;;;6.13;3.17;;;;;;;;;;5075939;28;20420;-65
2023/06/12 09:11:37;;;;;;;4.68;2.70;;;;;;;;;;5074691;28;20044;-66
2023/06/12 09:14:08;;;;;;;5.18;2.75;;;;;;;;;;5077088;28;20052;-64
2023/06/12 09:16:36;;;;;;;3.85;2.38;;;;;;;;;;5072803;28;20466;-64
2023/06/12 09:19:05;;;;;;;4.80;2.67;;;;;;;;;;5075828;28;20129;-68
2023/06/12 09:21:33;;;;;;;4.97;2.72;;;;;;;;;;5078016;28;20131;-67
2023/06/12 09:24:02;;;;;;;5.85;2.70;;;;;;;;;;5074415;28;20125;-66
2023/06/12 09:26:31;;;;;;;3.75;2.42;;;;;;;;;;5070295;28;20040;-67
2023/06/12 09:29:00;;;;;;;4.00;2.22;;;;;;;;;;5077893;28;20067;-68
2023/06/12 09:31:31;;;;;;;2.20;1.85;;;;;;;;;;5074910;28;20328;-68
2023/06/12 09:33:59;;;;;;;4.93;2.30;;;;;;;;;;5085366;28;20553;-66
2023/06/12 09:36:30;;;;;;;4.40;2.50;;;;;;;;;;5080783;28;20047;-66
2023/06/12 09:38:59;;;;;;;3.85;2.22;;;;;;;;;;5080632;28;20047;-64
2023/06/12 09:41:29;;;;;;;2.78;2.17;;;;;;;;;;5079735;28;20040;-66
2023/06/12 09:44:02;;;;;;;3.60;2.08;;;;;;;;;;5075959;28;20055;-67
2023/06/12 09:46:33;;;;;;;6.55;2.17;;;;;;;;;;5085098;28;20151;-66
2023/06/12 09:49:03;;;;;;;3.90;2.05;;;;;;;;;;5082283;28;20097;-66
2023/06/12 09:51:33;;;;;;;3.50;2.15;;;;;;;;;;5080336;28;20056;-66
2023/06/12 09:54:06;;;;;;;3.20;2.20;;;;;;;;;;5082671;28;20048;-67
2023/06/12 09:56:35;;;;;;;3.30;2.03;;;;;;;;;;5081486;28;20044;-67
2023/06/12 09:59:05;;;;;;;3.25;2.10;;;;;;;;;;5079901;28;20052;-68
2023/06/12 10:01:39;;;;;;;3.40;2.17;;;;;;;;;;5075997;28;20048;-67
2023/06/12 10:04:11;;;;;;;4.20;2.17;;;;;;;;;;5081245;28;20058;-68
2023/06/12 10:06:40;;;;;;;4.30;2.60;;;;;;;;;;5078663;28;20050;-69
2023/06/12 10:09:10;;;;;;;2.28;1.95;;;;;;;;;;5081998;28;20056;-66
2023/06/12 10:11:39;;;;;;;4.25;2.33;;;;;;;;;;5082248;28;20443;-67
2023/06/12 10:14:07;;;;;;;3.38;1.83;;;;;;;;;;5083200;28;20040;-66
2023/06/12 10:16:38;;;;;;;3.97;2.50;;;;;;;;;;5083706;28;20044;-71
2023/06/12 10:19:08;;;;;;;6.20;2.50;;;;;;;;;;5083147;28;20082;-68
2023/06/12 10:21:36;;;;;;;3.17;1.80;;;;;;;;;;5082760;28;20389;-67
2023/06/12 10:24:05;;;;;;;3.78;2.35;;;;;;;;;;5085619;28;20052;-66
2023/06/12 10:26:34;;;;;;;4.47;2.50;;;;;;;;;;5084853;28;20054;-65
2023/06/12 10:29:02;;;;;;;2.97;2.00;;;;;;;;;;5080435;28;20089;-66
2023/06/12 10:31:30;;;;;;;5.10;2.30;;;;;;;;;;5084060;28;20067;-66
2023/06/12 10:34:04;;;;;;;3.58;2.13;;;;;;;;;;5082847;28;20060;-67
2023/06/12 10:36:39;;;;;;;6.93;1.90;;;;;;;;;;5082598;28;20125;-66
2023/06/12 10:39:15;;;;;;;7.30;2.55;;;;;;;;;;5084365;28;20044;-66
2023/06/12 10:41:57;;;;;;;2.17;1.63;;;;;;;;;;5082677;28;20070;-67
2023/06/12 10:44:37;;;;;;;4.55;2.25;;;;;;;;;;5083848;28;20074;-67
2023/06/12 10:47:05;;;;;;;3.97;2.45;;;;;;;;;;5048035;28;20416;-66
2023/06/12 10:49:55;;;;;;;3.50;2.10;;;;;;;;;;5083768;28;20107;-67
2023/06/12 10:52:24;;;;;;;3.30;2.35;;;;;;;;;;5083755;28;20048;-66
2023/06/12 10:55:07;;;;;;;5.03;2.22;;;;;;;;;;5082000;28;20117;-66
2023/06/12 10:57:36;;;;;;;2.63;1.90;;;;;;;;;;5081316;28;20101;-70
2023/06/12 11:00:08;;;;;;;5.32;2.33;;;;;;;;;;5079575;28;20073;-67
2023/06/12 11:02:37;;;;;;;6.60;2.28;;;;;;;;;;5072806;28;20057;-70
2023/06/12 11:05:08;;;;;;;7.00;2.53;;;;;;;;;;5056387;28;20404;-66
2023/06/12 11:07:37;;;;;;;5.85;2.20;;;;;;;;;;5057532;28;20077;-67
2023/06/12 11:10:09;;;;;;;2.17;1.73;;;;;;;;;;5054196;28;20045;-66
2023/06/12 11:12:38;;;;;;;2.53;1.80;;;;;;;;;;5061034;28;20048;-70
2023/06/12 11:15:21;;;;;;;2.88;1.90;;;;;;;;;;5063318;28;20142;-67
2023/06/12 11:17:50;;;;;;;3.55;2.03;;;;;;;;;;5065216;28;20091;-66
2023/06/12 11:20:22;;;;;;;4.32;2.22;;;;;;;;;;5065528;28;20051;-66
2023/06/12 11:22:58;;;;;;;3.97;2.50;;;;;;;;;;5061007;28;20485;-69
2023/06/12 11:25:26;;;;;;;2.97;1.98;;;;;;;;;;5059021;28;20122;-68
2023/06/12 11:27:55;;;;;;;3.38;2.20;;;;;;;;;;5061620;28;20049;-66
2023/06/12 11:30:25;;;;;;;3.60;2.00;;;;;;;;;;5059255;28;20460;-67
2023/06/12 11:33:07;;;;;;;3.45;1.90;;;;;;;;;;5062765;28;20048;-66
2023/06/12 11:35:41;;;;;;;3.03;2.22;;;;;;;;;;5063345;28;20622;-66
2023/06/12 11:38:10;;;;;;;3.90;2.50;;;;;;;;;;5064983;28;20052;-66
2023/06/12 11:40:42;;;;;;;4.07;2.10;;;;;;;;;;5059272;28;20328;-69
2023/06/12 11:43:10;;;;;;;2.17;1.65;;;;;;;;;;5062506;28;20501;-68
2023/06/12 11:45:41;;;;;;;3.58;2.13;;;;;;;;;;5063758;28;20051;-68
2023/06/12 11:48:14;;;;;;;3.08;2.00;;;;;;;;;;5060077;28;20573;-67
2023/06/12 11:50:47;;;;;;;2.35;1.80;;;;;;;;;;5062340;28;20064;-68
2023/06/12 11:53:16;;;;;;;4.72;2.15;;;;;;;;;;5062606;28;20040;-67
2023/06/12 11:55:47;;;;;;;3.42;1.70;;;;;;;;;;5064623;28;20528;-67
2023/06/12 11:58:19;;;;;;;3.00;1.88;;;;;;;;;;5061912;28;20415;-68
2023/06/12 12:00:51;;;;;;;3.38;1.92;;;;;;;;;;5060216;28;22045;-68
2023/06/12 12:03:21;;;;;;;2.65;1.80;;;;;;;;;;5066595;28;20386;-68
2023/06/12 12:05:52;;;;;;;3.75;2.00;;;;;;;;;;5080290;28;20078;-67
2023/06/12 12:08:27;;;;;;;3.60;2.00;;;;;;;;;;5079496;28;20105;-67
2023/06/12 12:10:55;;;;;;;3.67;1.90;;;;;;;;;;5077127;28;20052;-70
2023/06/12 12:13:24;;;;;;;3.08;1.88;;;;;;;;;;5080466;28;20175;-68
2023/06/12 12:15:52;;;;;;;4.43;1.98;;;;;;;;;;5079855;28;20049;-67
2023/06/12 12:18:21;;;;;;;3.85;2.00;;;;;;;;;;5075225;28;20044;-67
2023/06/12 12:20:51;;;;;;;3.00;2.00;;;;;;;;;;5076650;28;20051;-67
2023/06/12 12:23:25;;;;;;;2.78;1.95;;;;;;;;;;5078083;28;20058;-71
2023/06/12 12:25:54;;;;;;;3.70;1.73;;;;;;;;;;5079948;28;20064;-67
2023/06/12 12:28:22;;;;;;;3.38;2.30;;;;;;;;;;5080474;28;20608;-68
2023/06/12 12:30:50;;;;;;;4.38;1.80;;;;;;;;;;5079067;28;20044;-67
2023/06/12 12:33:19;;;;;;;2.60;1.85;;;;;;;;;;5078719;28;20044;-66
2023/06/12 12:35:47;;;;;;;4.28;2.00;;;;;;;;;;5081216;28;20059;-67
2023/06/12 12:38:17;;;;;;;2.83;1.95;;;;;;;;;;5081476;28;20036;-67
2023/06/12 12:40:45;;;;;;;3.17;1.95;;;;;;;;;;5079278;28;20448;-67
2023/06/12 12:43:14;;;;;;;2.97;1.67;;;;;;;;;;5081006;28;20095;-66
2023/06/12 12:45:42;;;;;;;2.80;2.05;;;;;;;;;;5079136;28;20051;-67
2023/06/12 12:48:11;;;;;;;2.40;1.83;;;;;;;;;;5079186;28;20051;-69
2023/06/12 12:50:39;;;;;;;4.18;1.95;;;;;;;;;;5080014;28;20162;-67
2023/06/12 12:53:26;;;;;;;4.50;2.25;;;;;;;;;;5081418;28;20129;-68
2023/06/12 12:55:54;;;;;;;2.83;1.80;;;;;;;;;;5079486;28;20475;-69
2023/06/12 12:58:23;;;;;;;2.90;2.08;;;;;;;;;;5074735;28;20043;-66
2023/06/12 13:00:51;;;;;;;2.72;1.80;;;;;;;;;;5077114;28;20047;-69
2023/06/12 13:03:20;;;;;;;3.40;1.60;;;;;;;;;;5078956;28;20055;-68
2023/06/12 13:05:49;;;;;;;3.33;1.90;;;;;;;;;;5080252;28;20054;-66
2023/06/12 13:08:17;;;;;;;4.38;2.00;;;;;;;;;;5077823;28;20442;-67
2023/06/12 13:10:47;;;;;;;2.67;1.73;;;;;;;;;;5079767;28;20051;-68
2023/06/12 13:13:15;;;;;;;2.78;1.58;;;;;;;;;;5077758;28;20071;-66
2023/06/12 13:15:45;;;;;;;2.75;1.60;;;;;;;;;;5076250;28;20559;-66
2023/06/12 13:18:13;;;;;;;1.85;1.42;;;;;;;;;;5079441;28;20511;-66
2023/06/12 13:20:42;;;;;;;3.67;1.83;;;;;;;;;;5078381;28;20052;-66
2023/06/12 13:23:10;;;;;;;2.63;1.75;;;;;;;;;;5077730;28;20052;-69
2023/06/12 13:25:39;;;;;;;2.20;1.48;;;;;;;;;;5078421;28;20044;-69
2023/06/12 13:28:09;;;;;;;2.47;1.70;;;;;;;;;;5078293;28;20492;-68
2023/06/12 13:30:37;;;;;;;5.32;1.75;;;;;;;;;;5078634;28;20086;-68
2023/06/12 13:33:06;;;;;;;4.45;1.70;;;;;;;;;;5079258;28;20516;-67
2023/06/12 13:35:34;;;;;;;3.50;2.17;;;;;;;;;;5075712;28;20498;-68
2023/06/12 13:38:06;;;;;;;2.88;1.67;;;;;;;;;;5077758;28;20063;-67
2023/06/12 13:40:35;;;;;;;2.95;1.80;;;;;;;;;;5079802;28;20417;-69
2023/06/12 13:43:03;;;;;;;2.33;1.45;;;;;;;;;;5081429;28;20094;-69
2023/06/12 13:45:35;;;;;;;2.08;1.27;;;;;;;;;;5081307;28;20052;-68
2023/06/12 13:48:04;;;;;;;2.35;1.65;;;;;;;;;;5082621;28;20095;-68
2023/06/12 13:50:32;;;;;;;2.65;1.33;;;;;;;;;;5076732;28;20457;-67
2023/06/12 13:53:01;;;;;;;2.08;1.30;;;;;;;;;;5079666;28;20040;-68
2023/06/12 13:55:30;;;;;;;4.00;1.60;;;;;;;;;;5081544;28;20052;-69
2023/06/12 13:57:59;;;;;;;3.13;1.45;;;;;;;;;;5084479;28;20077;-68
2023/06/12 14:00:27;;;;;;;3.35;1.60;;;;;;;;;;5083130;28;20048;-68
2023/06/12 14:02:59;;;;;;;1.52;1.20;;;;;;;;;;5079726;28;20055;-68
2023/06/12 14:05:28;;;;;;;2.63;1.38;;;;;;;;;;5082079;28;20040;-67
2023/06/12 14:07:56;;;;;;;2.92;1.65;;;;;;;;;;5081437;28;20044;-68
2023/06/12 14:10:25;;;;;;;2.80;1.75;;;;;;;;;;5082916;28;20052;-68
2023/06/12 14:12:54;;;;;;;3.28;1.50;;;;;;;;;;5081556;28;20110;-68
2023/06/12 14:15:23;;;;;;;3.05;1.73;;;;;;;;;;5079210;28;20044;-68
2023/06/12 14:17:51;;;;;;;3.00;1.35;;;;;;;;;;5082448;28;20079;-69
2023/06/12 14:20:21;;;;;;;2.55;1.30;;;;;;;;;;5081589;28;20055;-68
2023/06/12 14:22:49;;;;;;;2.63;1.80;;;;;;;;;;5082324;28;20044;-66
2023/06/12 14:25:18;;;;;;;2.45;1.50;;;;;;;;;;5083902;28;20097;-69
2023/06/12 14:27:47;;;;;;;1.77;1.23;;;;;;;;;;5083095;28;20448;-67
2023/06/12 14:30:15;;;;;;;2.97;1.25;;;;;;;;;;5080609;28;20098;-67
2023/06/12 14:32:44;;;;;;;4.78;1.55;;;;;;;;;;5084468;28;20152;-66
2023/06/12 14:35:13;;;;;;;2.58;1.55;;;;;;;;;;5084231;28;20040;-66
2023/06/12 14:37:43;;;;;;;4.07;1.42;;;;;;;;;;5081783;28;20485;-68
2023/06/12 14:40:12;;;;;;;2.85;1.83;;;;;;;;;;5081143;28;20493;-69
2023/06/12 14:42:40;;;;;;;2.97;1.45;;;;;;;;;;5079920;28;20090;-66
2023/06/12 14:45:09;;;;;;;2.00;1.40;;;;;;;;;;5081387;28;20052;-67
2023/06/12 14:47:38;;;;;;;1.83;1.40;;;;;;;;;;5083654;28;20059;-67
2023/06/12 14:50:06;;;;;;;3.10;1.60;;;;;;;;;;5080523;28;20423;-66
2023/06/12 14:52:35;;;;;;;1.95;1.50;;;;;;;;;;5084214;28;20039;-66
2023/06/12 14:55:05;;;;;;;2.28;1.80;;;;;;;;;;5080490;28;20145;-67
2023/06/12 14:57:33;;;;;;;2.67;1.73;;;;;;;;;;5081790;28;20052;-69